Etusivu
METAR-TAF:

METAR-TAF

Lentoasemat :

Fort Rucker, Alabama, Yhdysvallat

Leveyspiiri: 31-21N, Pituuspiiri: 085-40W, korkeus merenpinnasta: 97 m

Tämänhetkinen sää

Tämä raportti tehtiin 1 tunti ja 33 minuuttia sitten, kello 15.08 UTC
Tuuli 3 kn etelästä/lounaasta
Lämpötila 18°C
Kosteus 94%
Ilmanpaine 1017 hPa
Näkyvyys: 16.1 km
Pilvistä 400 ft:n korkeudessa

METAR: KHEY 091508Z AUTO 21003KT 10SM OVC004 18/17 A3004 RMK AO2 SLP174

Aika: 10:41 (16:41 UTC)


TAF: puuttuu

Säähavainnot ja -ennusteet yli 4000 lentoasemalta (METAR- ja TAF-raportit).

Käytössä olevat sääasemat on merkitty karttaan keltaisilla ja punaisilla pisteillä.

Aseta hiiri pisteen päälle nähdäksesi sääaseman nimen.

Klikkaa sitten nähdäksesi säähavainnot ja -ennusteet.

Kartan vaihtaminen: klikkaa mustalla rastilla varustettuja vihreitä pisteitä, niin voit zoomata sisään; viivalla varustettua vihreää pistettä, niin voit zoomata ulos tai vihreitä nuolia, niin pääset viereisille kartoille.


METAR-TAF: